createdAt,value
2022-08-24T00:00:39.503Z,101394.44
2022-08-24T00:03:11.984Z,101393.47
2022-08-24T00:05:40.502Z,101384.31
2022-08-24T00:08:09.902Z,101387.03
2022-08-24T00:10:37.909Z,101381.75
2022-08-24T00:13:05.905Z,101383.59
2022-08-24T00:15:33.908Z,101378.16
2022-08-24T00:18:02.156Z,101396.03
2022-08-24T00:20:30.270Z,101389.47
2022-08-24T00:22:58.280Z,101389.34
2022-08-24T00:25:28.606Z,101377.19
2022-08-24T00:27:56.750Z,101381.19
2022-08-24T00:30:25.095Z,101382.06
2022-08-24T00:32:54.238Z,101386.78
2022-08-24T00:35:22.630Z,101372.59
2022-08-24T00:37:51.106Z,101373.22
2022-08-24T00:40:21.778Z,101374.19
2022-08-24T00:42:51.453Z,101371.63
2022-08-24T00:45:20.971Z,101384.19
2022-08-24T00:47:51.301Z,101356.88
2022-08-24T00:50:22.039Z,101341.00
2022-08-24T00:52:51.739Z,101365.22
2022-08-24T00:55:21.592Z,101368.75
2022-08-24T00:57:53.425Z,101348.59
2022-08-24T01:00:23.988Z,101350.47
2022-08-24T01:02:53.328Z,101349.13
2022-08-24T01:05:21.495Z,101350.47
2022-08-24T01:07:50.742Z,101351.31
2022-08-24T01:10:21.114Z,101337.41
2022-08-24T01:13:00.719Z,101343.84
2022-08-24T01:15:29.675Z,101357.72
2022-08-24T01:18:15.063Z,101359.72
2022-08-24T01:20:44.354Z,101367.72
2022-08-24T01:23:13.633Z,101357.72
2022-08-24T01:25:43.350Z,101356.13
2022-08-24T01:28:13.079Z,101351.59
2022-08-24T01:30:43.046Z,101351.59
2022-08-24T01:33:11.260Z,101341.53
2022-08-24T01:35:39.882Z,101346.81
2022-08-24T01:38:10.114Z,101358.28
2022-08-24T01:40:39.717Z,101357.66
2022-08-24T01:43:09.063Z,101359.50
2022-08-24T01:45:38.108Z,101365.69
2022-08-24T01:48:06.568Z,101360.13
2022-08-24T01:50:35.046Z,101361.97
2022-08-24T01:53:05.801Z,101350.78
2022-08-24T01:55:34.513Z,101369.84
2022-08-24T01:58:02.766Z,101370.28
2022-08-24T02:00:32.246Z,101370.44
2022-08-24T02:03:00.323Z,101373.00
2022-08-24T02:05:28.408Z,101364.75
2022-08-24T02:07:58.352Z,101356.63
2022-08-24T02:10:26.842Z,101369.16
2022-08-24T02:12:58.783Z,101363.88
2022-08-24T02:15:32.486Z,101363.75
2022-08-24T02:18:01.048Z,101363.63
2022-08-24T02:20:29.342Z,101362.75
2022-08-24T02:22:57.371Z,101353.75
2022-08-24T02:25:26.365Z,101359.19
2022-08-24T02:27:54.354Z,101356.31
2022-08-24T02:30:22.369Z,101341.88
2022-08-24T02:32:51.702Z,101361.16
2022-08-24T02:35:19.696Z,101356.63
2022-08-24T02:37:47.773Z,101355.75
2022-08-24T02:40:15.857Z,101344.03
2022-08-24T02:42:43.936Z,101353.75
2022-08-24T02:45:12.539Z,101347.59
2022-08-24T02:47:40.564Z,101354.63
2022-08-24T02:50:12.321Z,101354.88
2022-08-24T02:52:40.548Z,101355.16
2022-08-24T02:55:09.146Z,101363.56
2022-08-24T02:57:38.704Z,101351.97
2022-08-24T03:00:10.410Z,101362.97
2022-08-24T03:02:38.822Z,101358.91
2022-08-24T03:05:07.720Z,101358.53
2022-08-24T03:07:37.100Z,101347.22
2022-08-24T03:10:05.865Z,101360.66
2022-08-24T03:12:34.736Z,101357.94
2022-08-24T03:15:03.306Z,101369.91
2022-08-24T03:17:31.508Z,101362.75
2022-08-24T03:20:00.310Z,101362.88
2022-08-24T03:22:29.572Z,101355.63
2022-08-24T03:24:59.018Z,101364.59
2022-08-24T03:27:27.101Z,101359.16
2022-08-24T03:29:55.242Z,101355.63
2022-08-24T03:32:23.233Z,101364.75
2022-08-24T03:34:51.305Z,101356.75
2022-08-24T03:37:20.213Z,101352.19
2022-08-24T03:39:49.904Z,101358.44
2022-08-24T03:42:19.498Z,101345.44
2022-08-24T03:44:47.593Z,101356.47
2022-08-24T03:47:15.567Z,101358.59
2022-08-24T03:49:43.553Z,101347.75
2022-08-24T03:52:11.701Z,101357.63
2022-08-24T03:54:39.694Z,101334.94
2022-08-24T03:57:07.736Z,101355.88
2022-08-24T03:59:39.332Z,101359.56
2022-08-24T04:02:14.719Z,101355.28
2022-08-24T04:04:43.165Z,101353.16
2022-08-24T04:07:12.377Z,101352.19
2022-08-24T04:09:40.423Z,101351.44
2022-08-24T04:12:08.723Z,101352.59
2022-08-24T04:14:38.704Z,101354.28
2022-08-24T04:17:06.741Z,101352.59
2022-08-24T04:19:34.925Z,101360.94
2022-08-24T04:22:02.964Z,101376.13
2022-08-24T04:24:32.045Z,101384.97
2022-08-24T04:27:00.039Z,101376.75
2022-08-24T04:29:28.024Z,101386.41
2022-08-24T04:31:58.964Z,101387.91
2022-08-24T04:34:26.988Z,101390.47
2022-08-24T04:36:54.948Z,101390.59
2022-08-24T04:39:23.571Z,101398.66
2022-08-24T04:41:51.640Z,101398.13
2022-08-24T04:44:20.260Z,101391.34
2022-08-24T04:46:48.317Z,101396.28
2022-08-24T04:49:17.846Z,101396.97
2022-08-24T04:51:45.852Z,101402.00
2022-08-24T04:54:13.887Z,101406.75
2022-08-24T04:56:41.873Z,101401.50
2022-08-24T04:59:09.879Z,101420.28
2022-08-24T05:01:37.898Z,101414.66
2022-08-24T05:04:06.043Z,101418.69
2022-08-24T05:06:35.425Z,101424.25
2022-08-24T05:09:04.554Z,101423.28
2022-08-24T05:11:32.547Z,101414.06
2022-08-24T05:14:00.648Z,101423.66
2022-08-24T05:16:28.757Z,101427.47
2022-08-24T05:19:00.402Z,101430.91
2022-08-24T05:21:28.453Z,101436.19
2022-08-24T05:23:57.944Z,101447.34
2022-08-24T05:26:26.612Z,101437.53
2022-08-24T05:28:55.231Z,101439.97
2022-08-24T05:31:24.201Z,101438.16
2022-08-24T05:33:52.319Z,101440.22
2022-08-24T05:36:21.087Z,101439.38
2022-08-24T05:38:49.277Z,101439.50
2022-08-24T05:41:18.710Z,101443.28
2022-08-24T05:43:46.880Z,101447.81
2022-08-24T05:46:15.000Z,101452.88
2022-08-24T05:48:43.267Z,101454.38
2022-08-24T05:51:21.012Z,101449.69
2022-08-24T05:53:49.389Z,101446.25
2022-08-24T05:56:19.132Z,101462.13
2022-08-24T05:58:47.478Z,101460.41
2022-08-24T06:01:16.540Z,101465.81
2022-08-24T06:03:44.513Z,101470.38
2022-08-24T06:06:13.540Z,101473.94
2022-08-24T06:08:42.628Z,101471.09
2022-08-24T06:11:10.827Z,101473.59
2022-08-24T06:13:40.280Z,101488.19
2022-08-24T06:16:21.249Z,101492.72
2022-08-24T06:18:50.855Z,101487.69
2022-08-24T06:21:19.789Z,101494.81
2022-08-24T06:23:48.935Z,101499.22
2022-08-24T06:26:34.453Z,101492.84
2022-08-24T06:29:03.857Z,101492.00
2022-08-24T06:31:36.201Z,101499.22
2022-08-24T06:34:08.211Z,101496.41
2022-08-24T06:36:36.192Z,101498.13
2022-08-24T06:39:04.264Z,101497.13
2022-08-24T06:41:34.088Z,101502.31
2022-08-24T06:44:03.884Z,101493.13
2022-08-24T06:46:33.057Z,101495.34
2022-08-24T06:49:01.573Z,101501.28
2022-08-24T06:51:29.655Z,101507.06
2022-08-24T06:53:57.645Z,101503.81
2022-08-24T06:56:25.685Z,101496.19
2022-08-24T06:58:53.823Z,101506.56
2022-08-24T07:01:25.242Z,101506.31
2022-08-24T07:03:53.694Z,101498.81
2022-08-24T07:06:22.509Z,101501.66
2022-08-24T07:08:50.551Z,101511.88
2022-08-24T07:11:19.647Z,101510.41
2022-08-24T07:13:47.935Z,101514.38
2022-08-24T07:16:16.033Z,101513.28
2022-08-24T07:18:49.309Z,101519.53
2022-08-24T07:21:19.564Z,101518.78
2022-08-24T07:23:48.203Z,101518.06
2022-08-24T07:26:21.478Z,101513.50
2022-08-24T07:28:50.536Z,101507.72
2022-08-24T07:31:18.590Z,101517.81
2022-08-24T07:33:48.107Z,101515.38
2022-08-24T07:36:22.542Z,101511.94
2022-08-24T07:38:52.293Z,101514.66
2022-08-24T07:41:43.093Z,101511.06
2022-08-24T07:44:09.195Z,101514.75
2022-08-24T07:46:37.871Z,101515.34
2022-08-24T07:49:21.464Z,101522.50
2022-08-24T07:51:59.135Z,101527.78
2022-08-24T07:54:28.773Z,101528.53
2022-08-24T07:56:56.806Z,101522.00
2022-08-24T07:59:24.844Z,101527.16
2022-08-24T08:01:53.026Z,101509.31
2022-08-24T08:04:25.200Z,101518.28
2022-08-24T08:06:53.362Z,101514.84
2022-08-24T08:09:21.527Z,101522.13
2022-08-24T08:11:49.543Z,101526.88
2022-08-24T08:14:17.612Z,101532.41
2022-08-24T08:16:45.652Z,101528.34
2022-08-24T08:19:13.738Z,101534.81
2022-08-24T08:22:04.021Z,101532.13
2022-08-24T08:24:32.097Z,101529.50
2022-08-24T08:27:00.366Z,101524.09
2022-08-24T08:29:28.663Z,101534.19
2022-08-24T08:31:56.652Z,101543.34
2022-08-24T08:34:24.712Z,101541.50
2022-08-24T08:36:54.405Z,101550.22
2022-08-24T08:39:23.509Z,101548.25
2022-08-24T08:42:16.944Z,101545.53
2022-08-24T08:45:08.582Z,101548.13
2022-08-24T08:48:08.165Z,101558.31
2022-08-24T08:50:41.380Z,101554.97
2022-08-24T08:53:27.318Z,101557.03
2022-08-24T08:56:01.247Z,101562.72
2022-08-24T08:58:46.722Z,101557.16
2022-08-24T09:01:53.449Z,101566.59
2022-08-24T09:04:41.461Z,101568.59
2022-08-24T09:07:40.941Z,101553.69
2022-08-24T09:10:30.541Z,101560.78
2022-08-24T09:13:18.307Z,101560.28
2022-08-24T09:16:10.788Z,101567.22
2022-08-24T09:18:49.074Z,101567.66
2022-08-24T09:21:34.844Z,101573.31
2022-08-24T09:24:10.940Z,101565.50
2022-08-24T09:26:46.135Z,101571.81
2022-08-24T09:29:17.320Z,101575.34
2022-08-24T09:31:54.144Z,101559.84
2022-08-24T09:34:39.361Z,101559.31
2022-08-24T09:37:30.901Z,101558.66
2022-08-24T09:40:06.077Z,101556.56
2022-08-24T09:43:10.150Z,101553.16
2022-08-24T09:46:07.880Z,101548.34
2022-08-24T09:49:11.207Z,101554.41
2022-08-24T09:52:07.440Z,101555.81
2022-08-24T09:55:00.061Z,101557.53
2022-08-24T09:57:59.292Z,101563.50
2022-08-24T10:00:38.296Z,101571.09
2022-08-24T10:03:36.086Z,101562.94
2022-08-24T10:06:24.173Z,101547.97
2022-08-24T10:09:02.352Z,101562.47
2022-08-24T10:11:37.680Z,101560.41
2022-08-24T10:14:14.488Z,101562.25
2022-08-24T10:16:47.069Z,101563.09
2022-08-24T10:19:32.663Z,101550.66
2022-08-24T10:22:11.403Z,101559.72
2022-08-24T10:24:56.952Z,101561.59
2022-08-24T10:27:53.415Z,101569.75
2022-08-24T10:30:49.176Z,101556.28
2022-08-24T10:33:22.569Z,101559.75
2022-08-24T10:36:34.367Z,101542.84
2022-08-24T10:39:28.967Z,101550.63
2022-08-24T10:42:34.944Z,101553.06
2022-08-24T10:45:07.638Z,101548.34
2022-08-24T10:47:39.158Z,101550.38
2022-08-24T10:50:38.815Z,101549.41
2022-08-24T10:53:26.544Z,101557.03
2022-08-24T10:56:12.930Z,101550.13
2022-08-24T10:58:59.546Z,101554.66
2022-08-24T11:01:36.670Z,101545.13
2022-08-24T11:04:08.694Z,101555.69
2022-08-24T11:06:39.580Z,101550.22
2022-08-24T11:09:13.059Z,101562.03
2022-08-24T11:11:45.213Z,101553.28
2022-08-24T11:14:24.815Z,101560.97
2022-08-24T11:16:57.546Z,101559.19
2022-08-24T11:19:33.729Z,101550.38
2022-08-24T11:22:04.232Z,101556.41
2022-08-24T11:24:40.668Z,101567.78
2022-08-24T11:27:10.677Z,101557.16
2022-08-24T11:30:02.869Z,101551.06
2022-08-24T11:32:33.393Z,101549.59
2022-08-24T11:35:03.176Z,101555.22
2022-08-24T11:37:36.316Z,101558.91
2022-08-24T11:40:05.963Z,101553.31
2022-08-24T11:42:43.702Z,101534.47
2022-08-24T11:45:15.561Z,101537.69
2022-08-24T11:47:49.764Z,101533.47
2022-08-24T11:50:34.493Z,101543.56
2022-08-24T11:53:12.101Z,101546.53
2022-08-24T11:55:47.137Z,101547.13
2022-08-24T11:58:24.137Z,101544.56
2022-08-24T12:00:56.236Z,101553.31
2022-08-24T12:03:37.011Z,101550.13
2022-08-24T12:06:08.699Z,101544.22
2022-08-24T12:08:41.978Z,101559.75
2022-08-24T12:11:12.885Z,101557.84
2022-08-24T12:13:49.463Z,101565.28
2022-08-24T12:16:20.694Z,101568.38
2022-08-24T12:18:52.750Z,101570.16
2022-08-24T12:21:22.929Z,101579.59
2022-08-24T12:23:53.659Z,101571.06
2022-08-24T12:26:26.561Z,101581.94
2022-08-24T12:28:56.497Z,101576.22
2022-08-24T12:31:41.470Z,101589.22
2022-08-24T12:34:12.193Z,101596.25
2022-08-24T12:36:43.322Z,101599.41
2022-08-24T12:39:15.300Z,101597.19
2022-08-24T12:41:49.865Z,101606.78
2022-08-24T12:44:17.931Z,101613.84
2022-08-24T12:46:45.943Z,101609.97
2022-08-24T12:49:18.091Z,101612.25
2022-08-24T12:52:01.162Z,101617.00
2022-08-24T12:54:42.954Z,101618.94
2022-08-24T12:57:29.853Z,101614.97
2022-08-24T12:59:58.507Z,101625.47
2022-08-24T13:02:33.967Z,101631.94
2022-08-24T13:05:10.275Z,101637.06
2022-08-24T13:07:43.757Z,101639.81
2022-08-24T13:10:16.201Z,101633.66
2022-08-24T13:12:56.933Z,101640.13
2022-08-24T13:16:01.510Z,101646.28
2022-08-24T13:19:10.544Z,101642.69
2022-08-24T13:21:44.852Z,101650.72
2022-08-24T13:24:53.499Z,101640.31
2022-08-24T13:28:12.186Z,101647.00
2022-08-24T13:30:59.111Z,101647.16
2022-08-24T13:33:30.543Z,101636.22
2022-08-24T13:36:07.287Z,101631.13
2022-08-24T13:39:02.052Z,101636.38
2022-08-24T13:41:41.261Z,101632.31
2022-08-24T13:44:12.356Z,101633.00
2022-08-24T13:46:49.064Z,101623.72
2022-08-24T13:49:22.752Z,101624.84
2022-08-24T13:51:53.357Z,101627.81
2022-08-24T13:54:26.195Z,101625.53
2022-08-24T13:57:03.601Z,101630.97
2022-08-24T13:59:49.007Z,101629.22
2022-08-24T14:02:28.420Z,101640.16
2022-08-24T14:04:56.817Z,101629.41
2022-08-24T14:07:26.409Z,101636.56
2022-08-24T14:10:03.220Z,101644.25
2022-08-24T14:12:44.313Z,101635.53
2022-08-24T14:15:18.304Z,101638.22
2022-08-24T14:17:53.765Z,101623.78
2022-08-24T14:20:49.886Z,101634.19
2022-08-24T14:23:42.087Z,101617.69
2022-08-24T14:26:52.314Z,101629.56
2022-08-24T14:29:30.992Z,101633.47
2022-08-24T14:32:36.200Z,101623.59
2022-08-24T14:35:19.417Z,101605.97
2022-08-24T14:37:57.112Z,101617.78
2022-08-24T14:40:28.703Z,101621.78
2022-08-24T14:43:10.569Z,101627.25
2022-08-24T14:45:49.874Z,101630.19
2022-08-24T14:48:22.237Z,101630.81
2022-08-24T14:51:02.405Z,101629.38
2022-08-24T14:53:59.577Z,101635.28
2022-08-24T14:56:39.769Z,101620.28
2022-08-24T14:59:09.471Z,101636.69
2022-08-24T15:02:16.516Z,101630.81
2022-08-24T15:04:46.642Z,101627.00
2022-08-24T15:07:24.765Z,101635.00
2022-08-24T15:09:53.999Z,101626.72
2022-08-24T15:12:33.656Z,101626.84
2022-08-24T15:15:05.658Z,101629.91
2022-08-24T15:17:41.142Z,101621.31
2022-08-24T15:20:16.105Z,101635.34
2022-08-24T15:22:47.791Z,101642.56
2022-08-24T15:25:22.221Z,101637.16
2022-08-24T15:27:55.038Z,101630.75
2022-08-24T15:30:29.030Z,101642.91
2022-08-24T15:33:05.582Z,101601.94
2022-08-24T15:35:35.425Z,101638.66
2022-08-24T15:38:21.024Z,101632.13
2022-08-24T15:41:04.843Z,101634.69
2022-08-24T15:43:33.012Z,101628.28
2022-08-24T15:46:01.792Z,101623.53
2022-08-24T15:48:30.134Z,101629.00
2022-08-24T15:50:58.549Z,101630.88
2022-08-24T15:53:30.702Z,101629.84
2022-08-24T15:56:35.818Z,101620.81
2022-08-24T15:59:17.346Z,101624.25
2022-08-24T16:02:15.657Z,101628.41
2022-08-24T16:04:48.615Z,101637.44
2022-08-24T16:07:22.993Z,101634.03
2022-08-24T16:10:01.988Z,101628.31
2022-08-24T16:12:32.660Z,101630.88
2022-08-24T16:15:18.154Z,101637.41
2022-08-24T16:17:51.064Z,101634.41
2022-08-24T16:20:33.315Z,101621.81
2022-08-24T16:23:02.573Z,101638.44
2022-08-24T16:25:32.880Z,101618.22
2022-08-24T16:28:05.488Z,101638.28
2022-08-24T16:30:44.864Z,101642.31
2022-08-24T16:33:43.052Z,101653.84
2022-08-24T16:36:13.028Z,101650.84
2022-08-24T16:38:46.567Z,101646.94
2022-08-24T16:41:17.657Z,101648.25
2022-08-24T16:43:46.033Z,101644.38
2022-08-24T16:46:14.465Z,101652.09
2022-08-24T16:48:43.193Z,101643.97
2022-08-24T16:51:11.402Z,101651.69
2022-08-24T16:53:39.432Z,101662.59
2022-08-24T16:56:08.906Z,101662.13
2022-08-24T16:58:38.464Z,101667.59
2022-08-24T17:01:06.869Z,101677.75
2022-08-24T17:03:35.378Z,101682.72
2022-08-24T17:06:03.718Z,101686.28
2022-08-24T17:08:32.124Z,101681.09
2022-08-24T17:11:00.590Z,101676.19
2022-08-24T17:13:48.293Z,101704.38
2022-08-24T17:16:18.272Z,101714.47
2022-08-24T17:18:46.525Z,101723.38
2022-08-24T17:21:14.700Z,101732.16
2022-08-24T17:23:43.094Z,101728.44
2022-08-24T17:26:20.120Z,101727.19
2022-08-24T17:28:49.610Z,101734.47
2022-08-24T17:31:19.420Z,101730.50
2022-08-24T17:33:47.592Z,101740.00
2022-08-24T17:36:16.136Z,101740.53
2022-08-24T17:38:45.922Z,101738.28
2022-08-24T17:41:14.743Z,101729.34
2022-08-24T17:43:47.215Z,101743.50
2022-08-24T17:46:15.875Z,101728.84
2022-08-24T17:48:45.978Z,101735.47
2022-08-24T17:51:20.125Z,101723.16
2022-08-24T17:53:52.136Z,101645.63
2022-08-24T17:56:20.679Z,101732.69
2022-08-24T17:59:14.794Z,101701.25
2022-08-24T18:01:42.976Z,101739.78
2022-08-24T18:04:12.618Z,101737.53
2022-08-24T18:06:42.969Z,101744.19
2022-08-24T18:09:17.924Z,101743.22
2022-08-24T18:11:46.167Z,101736.31
2022-08-24T18:14:14.502Z,101735.81
2022-08-24T18:16:42.696Z,101736.47
2022-08-24T18:19:25.358Z,101735.78
2022-08-24T18:21:53.508Z,101716.56
2022-08-24T18:24:22.111Z,101729.66
2022-08-24T18:26:50.437Z,101735.47
2022-08-24T18:29:24.739Z,101701.97
2022-08-24T18:31:53.129Z,101713.81
2022-08-24T18:34:32.741Z,101737.97
2022-08-24T18:37:03.129Z,101757.34
2022-08-24T18:39:52.090Z,101759.06
2022-08-24T18:42:23.599Z,101727.28
2022-08-24T18:44:51.765Z,101753.81
2022-08-24T18:47:19.807Z,101755.28
2022-08-24T18:49:49.521Z,101763.66
2022-08-24T18:52:19.101Z,101758.00
2022-08-24T18:54:48.313Z,101757.34
2022-08-24T18:57:16.815Z,101753.84
2022-08-24T18:59:47.743Z,101765.53
2022-08-24T19:02:33.547Z,101775.38
2022-08-24T19:05:06.685Z,101772.13
2022-08-24T19:07:36.176Z,101776.16
2022-08-24T19:10:05.086Z,101761.34
2022-08-24T19:12:33.548Z,101753.47
2022-08-24T19:15:03.124Z,101754.69
2022-08-24T19:17:31.250Z,101754.56
2022-08-24T19:19:59.254Z,101759.13
2022-08-24T19:22:28.681Z,101756.66
2022-08-24T19:24:56.931Z,101760.09
2022-08-24T19:27:26.142Z,101770.81
2022-08-24T19:29:55.890Z,101772.44
2022-08-24T19:32:26.177Z,101782.38
2022-08-24T19:34:54.361Z,101790.13
2022-08-24T19:37:22.452Z,101772.69
2022-08-24T19:39:52.036Z,101790.44
2022-08-24T19:42:21.433Z,101797.06
2022-08-24T19:45:06.944Z,101804.53
2022-08-24T19:47:35.160Z,101803.16
2022-08-24T19:50:03.697Z,101806.84
2022-08-24T19:52:32.904Z,101801.88
2022-08-24T19:55:02.538Z,101807.13
2022-08-24T19:57:36.219Z,101802.03
2022-08-24T20:00:22.017Z,101750.22
2022-08-24T20:02:51.568Z,101810.31
2022-08-24T20:05:20.149Z,101809.16
2022-08-24T20:07:48.207Z,101817.38
2022-08-24T20:10:19.150Z,101829.94
2022-08-24T20:12:47.140Z,101827.75
2022-08-24T20:15:15.195Z,101830.13
2022-08-24T20:17:43.388Z,101818.09
2022-08-24T20:20:13.322Z,101805.53
2022-08-24T20:22:41.392Z,101822.84
2022-08-24T20:25:10.087Z,101820.22
2022-08-24T20:27:39.741Z,101824.81
2022-08-24T20:30:09.161Z,101831.19
2022-08-24T20:32:37.209Z,101819.59
2022-08-24T20:35:05.669Z,101824.16
2022-08-24T20:37:33.999Z,101834.97
2022-08-24T20:40:02.285Z,101829.56
2022-08-24T20:42:31.768Z,101831.19
2022-08-24T20:48:31.393Z,101825.97
2022-08-24T20:50:59.809Z,101815.50
2022-08-24T20:53:27.849Z,101801.22
2022-08-24T20:56:06.801Z,101799.50
2022-08-24T20:58:34.887Z,101788.34
2022-08-24T21:01:02.958Z,101796.81
2022-08-24T21:03:32.481Z,101797.81
2022-08-24T21:06:00.689Z,101789.81
2022-08-24T21:08:28.664Z,101790.03
2022-08-24T21:10:56.725Z,101798.31
2022-08-24T21:13:24.766Z,101788.69
2022-08-24T21:15:52.972Z,101793.22
2022-08-24T21:18:21.360Z,101784.38
2022-08-24T21:21:03.375Z,101787.41
2022-08-24T21:23:33.110Z,101774.97
2022-08-24T21:26:01.906Z,101779.75
2022-08-24T21:28:30.060Z,101788.94
2022-08-24T21:31:01.411Z,101799.13
2022-08-24T21:33:49.474Z,101819.00
2022-08-24T21:36:18.855Z,101814.59
2022-08-24T21:38:46.898Z,101818.13
2022-08-24T21:41:15.745Z,101818.13
2022-08-24T21:43:43.745Z,101817.19
2022-08-24T21:46:12.073Z,101812.72
2022-08-24T21:48:40.158Z,101816.66
2022-08-24T21:51:08.307Z,101821.81
2022-08-24T21:53:38.077Z,101832.75
2022-08-24T21:56:06.338Z,101839.13
2022-08-24T21:58:34.459Z,101835.56
2022-08-24T22:01:03.809Z,101823.56
2022-08-24T22:03:39.879Z,101825.81
2022-08-24T22:06:08.655Z,101838.13
2022-08-24T22:08:38.160Z,101833.06
2022-08-24T22:11:06.279Z,101840.53
2022-08-24T22:13:34.245Z,101857.72
2022-08-24T22:16:02.641Z,101851.88
2022-08-24T22:18:30.896Z,101865.84
2022-08-24T22:20:58.903Z,101875.16
2022-08-24T22:23:26.853Z,101882.50
2022-08-24T22:25:56.260Z,101888.00
2022-08-24T22:28:24.763Z,101880.88
2022-08-24T22:30:52.925Z,101878.72
2022-08-24T22:33:21.010Z,101886.41
2022-08-24T22:35:50.409Z,101879.69
2022-08-24T22:38:18.516Z,101874.81
2022-08-24T22:40:46.526Z,101877.19
2022-08-24T22:43:15.933Z,101882.59
2022-08-24T22:45:43.983Z,101886.38
2022-08-24T22:48:11.980Z,101895.59
2022-08-24T22:50:43.671Z,101902.84
2022-08-24T22:53:11.624Z,101907.91
2022-08-24T22:55:39.600Z,101917.34
2022-08-24T22:58:07.609Z,101910.31
2022-08-24T23:00:39.330Z,101913.00
2022-08-24T23:03:07.508Z,101905.66
2022-08-24T23:05:35.491Z,101889.19
2022-08-24T23:08:03.635Z,101883.91
2022-08-24T23:10:31.616Z,101892.13
2022-08-24T23:13:00.206Z,101899.38
2022-08-24T23:15:28.550Z,101907.38
2022-08-24T23:17:58.064Z,101897.53
2022-08-24T23:20:25.251Z,101900.34
2022-08-24T23:22:53.322Z,101876.88
2022-08-24T23:25:21.440Z,101873.19
2022-08-24T23:27:50.207Z,101875.34
2022-08-24T23:30:18.341Z,101880.31
2022-08-24T23:32:47.694Z,101888.88
2022-08-24T23:35:17.149Z,101890.69
2022-08-24T23:37:45.152Z,101889.81
2022-08-24T23:42:41.517Z,101891.88
2022-08-24T23:45:12.297Z,101897.50
2022-08-24T23:47:40.934Z,101904.09
2022-08-24T23:50:11.012Z,101904.41
2022-08-24T23:52:41.303Z,101912.41
2022-08-24T23:55:20.215Z,101899.56
2022-08-24T23:57:49.876Z,101898.78
